Time;durP1;ratioP1;P1;durP2;ratioP2;P2;SDS_P1;SDS_P2;PMS_P1;PMS_P2;Temp;Humidity;BMP_temperature;BMP_pressure;BME280_temperature;BME280_humidity;BME280_pressure;Samples;Min_cycle;Max_cycle;Signal;HPM_P1;HPM_P2
2021/10/15 00:01:03;;;;;;;27.47;22.97;;;13.30;99.90;;;;;;5076859;28;20467;-71
2021/10/15 00:03:31;;;;;;;29.03;22.27;;;13.20;99.90;;;;;;5076496;28;20473;-71
2021/10/15 00:06:04;;;;;;;30.03;22.30;;;13.20;99.90;;;;;;5077214;28;20458;-69
2021/10/15 00:08:31;;;;;;;31.60;23.17;;;13.30;99.90;;;;;;5076071;28;20602;-71
2021/10/15 00:10:58;;;;;;;29.00;23.50;;;13.30;99.90;;;;;;5076463;28;20466;-71
2021/10/15 00:13:24;;;;;;;30.60;22.70;;;13.30;99.90;;;;;;5076332;28;20459;-70
2021/10/15 00:15:51;;;;;;;26.97;21.97;;;13.20;99.90;;;;;;5076602;28;20875;-70
2021/10/15 00:18:18;;;;;;;28.97;22.40;;;13.20;99.90;;;;;;5076803;28;20468;-70
2021/10/15 00:20:46;;;;;;;31.90;22.00;;;13.20;99.90;;;;;;5076485;28;20466;-70
2021/10/15 00:23:14;;;;;;;25.60;20.93;;;13.20;99.90;;;;;;5075884;28;20942;-70
2021/10/15 00:25:40;;;;;;;24.70;21.37;;;13.30;99.90;;;;;;5076502;28;20537;-70
2021/10/15 00:28:07;;;;;;;25.43;20.40;;;13.20;99.90;;;;;;5076199;28;20482;-69
2021/10/15 00:30:34;;;;;;;28.07;21.60;;;13.20;99.90;;;;;;5076480;28;20460;-69
2021/10/15 00:33:00;;;;;;;25.50;20.20;;;13.20;99.90;;;;;;5075911;28;20458;-69
2021/10/15 00:35:27;;;;;;;25.40;19.07;;;13.20;99.90;;;;;;5076612;28;20768;-69
2021/10/15 00:37:55;;;;;;;26.30;18.43;;;13.10;99.90;;;;;;5076121;28;20462;-69
2021/10/15 00:40:22;;;;;;;24.57;19.27;;;13.10;99.90;;;;;;5076479;28;20481;-69
2021/10/15 00:42:49;;;;;;;29.07;19.70;;;13.10;99.90;;;;;;5075949;28;20485;-69
2021/10/15 00:45:16;;;;;;;23.50;18.53;;;13.00;99.90;;;;;;5076134;28;20501;-70
2021/10/15 00:47:42;;;;;;;22.43;18.33;;;13.00;99.90;;;;;;5076051;28;20474;-70
2021/10/15 00:50:09;;;;;;;23.30;18.17;;;12.90;99.90;;;;;;5076344;28;20464;-70
2021/10/15 00:52:38;;;;;;;20.17;15.83;;;13.00;99.90;;;;;;5076122;28;20466;-69
2021/10/15 00:55:07;;;;;;;22.97;17.13;;;12.90;99.90;;;;;;5075567;28;20945;-69
2021/10/15 00:57:34;;;;;;;20.40;16.10;;;12.90;99.90;;;;;;5075835;28;20459;-70
2021/10/15 01:00:01;;;;;;;18.63;16.00;;;12.90;99.90;;;;;;5075942;28;20461;-70
2021/10/15 01:02:27;;;;;;;22.60;16.63;;;12.90;99.90;;;;;;5075641;28;20459;-69
2021/10/15 01:04:55;;;;;;;18.17;15.30;;;12.90;99.90;;;;;;5075146;28;20471;-70
2021/10/15 01:07:23;;;;;;;19.83;15.43;;;12.90;99.90;;;;;;5075674;28;20691;-69
2021/10/15 01:09:50;;;;;;;18.57;15.50;;;12.90;99.90;;;;;;5075526;28;20462;-69
2021/10/15 01:12:18;;;;;;;19.47;15.70;;;12.90;99.90;;;;;;5075134;28;20463;-70
2021/10/15 01:14:45;;;;;;;19.37;15.10;;;12.90;99.90;;;;;;5075466;28;20491;-70
2021/10/15 01:17:12;;;;;;;17.87;15.60;;;12.90;99.90;;;;;;5075740;28;20464;-70
2021/10/15 01:19:38;;;;;;;19.47;15.17;;;12.90;99.90;;;;;;5075177;28;20917;-70
2021/10/15 01:22:08;;;;;;;19.20;15.70;;;12.90;99.90;;;;;;5075436;28;20459;-70
2021/10/15 01:24:36;;;;;;;17.93;15.20;;;12.80;99.90;;;;;;5075416;28;20937;-70
2021/10/15 01:27:05;;;;;;;18.93;15.80;;;12.80;99.90;;;;;;5075599;28;20459;-70
2021/10/15 01:29:31;;;;;;;16.97;14.27;;;12.80;99.90;;;;;;5075458;28;20952;-70
2021/10/15 01:31:58;;;;;;;17.87;14.73;;;12.80;99.90;;;;;;5075063;28;20455;-69
2021/10/15 01:34:25;;;;;;;15.63;13.17;;;12.80;99.90;;;;;;5074811;28;20504;-69
2021/10/15 01:36:52;;;;;;;14.80;12.77;;;12.80;99.90;;;;;;5074936;28;20446;-69
2021/10/15 01:39:20;;;;;;;17.10;14.47;;;12.80;99.90;;;;;;5075026;28;20462;-69
2021/10/15 01:41:47;;;;;;;18.00;13.27;;;12.80;99.90;;;;;;5074884;28;20454;-69
2021/10/15 01:44:13;;;;;;;19.20;13.07;;;12.70;99.90;;;;;;5074532;28;20478;-70
2021/10/15 01:46:40;;;;;;;16.03;13.57;;;12.70;99.90;;;;;;5074754;28;20925;-69
2021/10/15 01:49:07;;;;;;;16.70;13.80;;;12.70;99.90;;;;;;5074881;28;20474;-69
2021/10/15 01:51:34;;;;;;;16.37;12.87;;;12.70;99.90;;;;;;5074707;28;20460;-70
2021/10/15 01:54:00;;;;;;;18.10;13.47;;;12.70;99.90;;;;;;5074667;28;20835;-69
2021/10/15 01:56:28;;;;;;;15.67;13.70;;;12.70;99.90;;;;;;5074605;28;20930;-69
2021/10/15 01:58:55;;;;;;;15.00;13.30;;;12.60;99.90;;;;;;5074801;28;20465;-69
2021/10/15 02:01:24;;;;;;;16.37;12.70;;;12.60;99.90;;;;;;5074695;28;20466;-70
2021/10/15 02:03:50;;;;;;;19.27;13.30;;;12.60;99.90;;;;;;5074773;28;20458;-70
2021/10/15 02:06:17;;;;;;;20.13;13.03;;;12.70;99.90;;;;;;5074835;28;20460;-70
2021/10/15 02:08:44;;;;;;;17.00;12.80;;;12.70;99.90;;;;;;5074217;28;20490;-70
2021/10/15 02:11:11;;;;;;;13.37;11.80;;;12.60;99.90;;;;;;5074467;28;20459;-70
2021/10/15 02:13:39;;;;;;;15.80;12.27;;;12.60;99.90;;;;;;5074649;28;20466;-71
2021/10/15 02:16:08;;;;;;;15.97;11.77;;;12.70;99.90;;;;;;5074407;28;20462;-72
2021/10/15 02:18:35;;;;;;;15.27;12.83;;;12.60;99.90;;;;;;5074515;28;20462;-70
2021/10/15 02:21:02;;;;;;;19.77;13.57;;;12.70;99.90;;;;;;5074855;28;20472;-70
2021/10/15 02:23:29;;;;;;;18.10;11.23;;;12.70;99.90;;;;;;5074586;28;20454;-71
2021/10/15 02:25:55;;;;;;;14.47;11.90;;;12.70;99.90;;;;;;5077265;28;20454;-70
2021/10/15 02:28:22;;;;;;;12.53;10.73;;;12.70;99.90;;;;;;5078528;28;20478;-70
2021/10/15 02:30:50;;;;;;;14.20;11.47;;;12.60;99.90;;;;;;5078392;28;20463;-72
2021/10/15 02:33:17;;;;;;;14.00;11.60;;;12.70;99.90;;;;;;5078449;28;20953;-70
2021/10/15 02:35:43;;;;;;;13.90;12.40;;;12.70;99.90;;;;;;5078308;28;20824;-70
2021/10/15 02:38:10;;;;;;;13.23;11.83;;;12.60;99.90;;;;;;5078717;28;20454;-70
2021/10/15 02:40:37;;;;;;;12.83;10.50;;;12.70;99.90;;;;;;5077948;28;20458;-71
2021/10/15 02:43:03;;;;;;;13.83;11.13;;;12.70;99.90;;;;;;5078162;28;20480;-70
2021/10/15 02:45:31;;;;;;;14.30;12.10;;;12.60;99.90;;;;;;5078384;28;20492;-70
2021/10/15 02:48:00;;;;;;;12.93;11.17;;;12.60;99.90;;;;;;5078002;28;20481;-70
2021/10/15 02:50:26;;;;;;;13.43;11.50;;;12.60;99.90;;;;;;5078253;28;20459;-70
2021/10/15 02:52:53;;;;;;;15.00;12.27;;;12.60;99.90;;;;;;5078082;28;20914;-70
2021/10/15 02:55:20;;;;;;;12.13;10.27;;;12.60;99.90;;;;;;5078024;28;20465;-70
2021/10/15 02:57:49;;;;;;;13.77;10.90;;;12.60;99.90;;;;;;5078140;28;20459;-70
2021/10/15 03:00:16;;;;;;;12.37;11.10;;;12.60;99.90;;;;;;5078046;28;20772;-70
2021/10/15 03:02:42;;;;;;;13.63;10.20;;;12.60;99.90;;;;;;5078116;28;20479;-70
2021/10/15 03:05:10;;;;;;;13.90;11.07;;;12.50;99.90;;;;;;5077972;28;20519;-70
2021/10/15 03:07:38;;;;;;;10.63;9.63;;;12.60;99.90;;;;;;5077478;28;20477;-70
2021/10/15 03:10:08;;;;;;;13.17;11.30;;;12.60;99.90;;;;;;5077653;28;20566;-70
2021/10/15 03:12:35;;;;;;;13.03;11.47;;;12.60;99.90;;;;;;5078064;28;20456;-70
2021/10/15 03:15:02;;;;;;;15.20;11.47;;;12.60;99.90;;;;;;5077830;28;20454;-70
2021/10/15 03:17:28;;;;;;;13.67;10.20;;;12.70;99.90;;;;;;5077723;28;20879;-70
2021/10/15 03:19:55;;;;;;;11.77;10.03;;;12.70;99.90;;;;;;5077673;28;20780;-70
2021/10/15 03:22:23;;;;;;;19.80;9.70;;;12.70;99.90;;;;;;5077710;28;20454;-70
2021/10/15 03:24:50;;;;;;;12.20;10.90;;;12.60;99.90;;;;;;5077684;28;20484;-70
2021/10/15 03:27:16;;;;;;;13.37;10.00;;;12.60;99.90;;;;;;5077756;28;20462;-70
2021/10/15 03:29:43;;;;;;;11.03;9.93;;;12.60;99.90;;;;;;5077373;28;20485;-71
2021/10/15 03:32:10;;;;;;;13.57;10.13;;;12.60;99.90;;;;;;5077544;28;20462;-70
2021/10/15 03:34:39;;;;;;;12.70;9.63;;;12.60;99.90;;;;;;5077611;28;20462;-70
2021/10/15 03:37:06;;;;;;;11.83;10.53;;;12.60;99.90;;;;;;5077190;28;20785;-70
2021/10/15 03:39:34;;;;;;;14.30;9.60;;;12.70;99.90;;;;;;5077596;28;20489;-70
2021/10/15 03:42:02;;;;;;;11.80;9.60;;;12.60;99.90;;;;;;5076827;28;20453;-70
2021/10/15 03:44:29;;;;;;;11.30;8.73;;;12.70;99.90;;;;;;5077530;28;20438;-70
2021/10/15 03:46:56;;;;;;;9.93;8.93;;;12.70;99.90;;;;;;5076951;28;20915;-70
2021/10/15 03:49:22;;;;;;;10.57;9.23;;;12.70;99.90;;;;;;5077026;28;20470;-70
2021/10/15 03:51:49;;;;;;;10.60;9.33;;;12.60;99.90;;;;;;5076934;28;20458;-70
2021/10/15 03:54:16;;;;;;;12.90;8.60;;;12.60;99.90;;;;;;5077114;28;20523;-70
2021/10/15 03:56:44;;;;;;;10.13;8.77;;;12.70;99.90;;;;;;5076927;28;20465;-70
2021/10/15 03:59:10;;;;;;;14.67;9.97;;;12.60;99.90;;;;;;5076764;28;20947;-70
2021/10/15 04:01:37;;;;;;;10.63;9.43;;;12.60;99.90;;;;;;5076951;28;20772;-70
2021/10/15 04:04:04;;;;;;;9.70;8.60;;;12.60;99.90;;;;;;5077258;28;20770;-70
2021/10/15 04:06:30;;;;;;;10.13;9.03;;;12.60;99.90;;;;;;5076767;28;20455;-70
2021/10/15 04:08:57;;;;;;;9.30;8.30;;;12.60;99.90;;;;;;5076701;28;20479;-70
2021/10/15 04:11:24;;;;;;;10.60;8.63;;;12.60;99.90;;;;;;5076631;28;20466;-70
2021/10/15 04:13:52;;;;;;;11.63;9.17;;;12.60;99.90;;;;;;5076821;28;20464;-70
2021/10/15 04:16:19;;;;;;;9.57;8.40;;;12.60;99.90;;;;;;5076196;28;20933;-70
2021/10/15 04:18:45;;;;;;;10.90;8.73;;;12.60;99.90;;;;;;5076726;28;20447;-70
2021/10/15 04:21:12;;;;;;;9.97;8.90;;;12.60;99.90;;;;;;5076712;28;20455;-70
2021/10/15 04:23:41;;;;;;;9.47;8.47;;;12.60;99.90;;;;;;5076618;28;20795;-70
2021/10/15 04:26:08;;;;;;;11.70;8.70;;;12.60;99.90;;;;;;5076390;28;20524;-70
2021/10/15 04:28:35;;;;;;;9.47;8.47;;;12.60;99.90;;;;;;5076185;28;20514;-70
2021/10/15 04:31:03;;;;;;;9.37;7.40;;;12.60;99.90;;;;;;5076859;28;20459;-70
2021/10/15 04:33:30;;;;;;;9.70;8.33;;;12.60;99.90;;;;;;5076019;28;20458;-70
2021/10/15 04:38:37;;;;;;;11.13;7.57;;;12.60;99.90;;;;;;5059092;28;20461;-70
2021/10/15 04:41:04;;;;;;;9.37;7.47;;;12.60;99.90;;;;;;5075916;28;20825;-70
2021/10/15 04:43:31;;;;;;;10.87;8.13;;;12.60;99.90;;;;;;5075724;28;20490;-70
2021/10/15 04:45:57;;;;;;;9.63;8.23;;;12.60;99.90;;;;;;5076152;28;20452;-70
2021/10/15 04:48:25;;;;;;;8.67;7.70;;;12.70;99.90;;;;;;5075018;28;20462;-70
2021/10/15 04:50:52;;;;;;;9.60;8.30;;;12.70;99.90;;;;;;5075675;28;20472;-70
2021/10/15 04:53:19;;;;;;;9.03;7.60;;;12.70;99.90;;;;;;5075979;28;20829;-70
2021/10/15 04:55:45;;;;;;;9.83;7.50;;;12.70;99.90;;;;;;5075670;28;20459;-70
2021/10/15 04:58:12;;;;;;;8.13;7.30;;;12.70;99.90;;;;;;5075922;28;20496;-70
2021/10/15 05:00:39;;;;;;;8.93;7.23;;;12.70;99.90;;;;;;5076091;28;20456;-70
2021/10/15 05:03:06;;;;;;;7.77;7.07;;;12.70;99.90;;;;;;5075841;28;20817;-70
2021/10/15 05:05:34;;;;;;;8.23;7.27;;;12.70;99.90;;;;;;5075554;28;20934;-70
2021/10/15 05:08:01;;;;;;;7.63;6.83;;;12.70;99.90;;;;;;5075685;28;20917;-70
2021/10/15 05:10:29;;;;;;;9.80;7.00;;;12.70;99.90;;;;;;5075499;28;20474;-70
2021/10/15 05:12:56;;;;;;;8.73;7.93;;;12.70;99.90;;;;;;5075569;28;20519;-70
2021/10/15 05:15:23;;;;;;;8.93;7.60;;;12.70;99.90;;;;;;5075561;28;20523;-70
2021/10/15 05:17:51;;;;;;;10.07;7.93;;;12.70;99.90;;;;;;5075394;28;20537;-70
2021/10/15 05:20:20;;;;;;;12.57;8.33;;;12.70;99.90;;;;;;5075243;28;20455;-70
2021/10/15 05:22:48;;;;;;;9.73;8.47;;;12.60;99.90;;;;;;5074741;28;20459;-70
2021/10/15 05:25:16;;;;;;;9.77;7.20;;;12.60;99.90;;;;;;5075389;28;20477;-70
2021/10/15 05:27:44;;;;;;;8.97;7.97;;;12.60;99.90;;;;;;5075046;28;20459;-70
2021/10/15 05:30:12;;;;;;;8.13;7.33;;;12.60;99.90;;;;;;5075236;28;20517;-69
2021/10/15 05:32:39;;;;;;;8.87;7.90;;;12.60;99.90;;;;;;5075016;28;20459;-70
2021/10/15 05:35:07;;;;;;;8.43;7.57;;;12.60;99.90;;;;;;5074878;28;20471;-70
2021/10/15 05:37:34;;;;;;;10.33;8.17;;;12.60;99.90;;;;;;5075132;28;20792;-70
2021/10/15 05:40:02;;;;;;;10.17;8.10;;;12.60;99.90;;;;;;5075125;28;20458;-70
2021/10/15 05:42:30;;;;;;;9.03;8.07;;;12.60;99.90;;;;;;5074551;28;20487;-70
2021/10/15 05:44:57;;;;;;;9.57;7.40;;;12.60;99.90;;;;;;5075258;28;20764;-70
2021/10/15 05:47:25;;;;;;;9.20;8.20;;;12.50;99.90;;;;;;5074935;28;20531;-70
2021/10/15 05:49:51;;;;;;;15.43;7.53;;;12.50;99.90;;;;;;5074229;28;20512;-70
2021/10/15 05:52:27;;;;;;;8.80;7.63;;;12.50;99.90;;;;;;5074937;28;20459;-69
2021/10/15 05:54:57;;;;;;;8.77;7.97;;;12.50;99.90;;;;;;5074444;28;20463;-70
2021/10/15 06:00:12;;;;;;;9.40;7.30;;;12.50;99.90;;;;;;5073742;28;20500;-70
2021/10/15 06:02:42;;;;;;;15.33;7.60;;;12.60;99.90;;;;;;5073980;28;20984;-71
2021/10/15 06:16:44;;;;;;;8.53;6.53;;;12.60;99.90;;;;;;5134100;28;20416;-71
2021/10/15 06:19:13;;;;;;;10.67;6.40;;;12.60;99.90;;;;;;5135584;28;20895;-71
2021/10/15 06:21:41;;;;;;;7.23;6.20;;;12.60;99.90;;;;;;5135557;28;20460;-71
2021/10/15 06:24:10;;;;;;;9.60;7.17;;;12.60;99.90;;;;;;5133054;28;20483;-70
2021/10/15 06:26:37;;;;;;;7.23;5.60;;;12.70;99.90;;;;;;5132788;28;20586;-70
2021/10/15 06:29:04;;;;;;;7.23;5.37;;;12.70;99.90;;;;;;5132839;28;20466;-71
2021/10/15 06:31:31;;;;;;;17.00;6.30;;;12.80;99.90;;;;;;5132433;28;20575;-70
2021/10/15 06:33:59;;;;;;;10.90;6.00;;;12.80;99.90;;;;;;5132428;28;20508;-70
2021/10/15 06:36:25;;;;;;;7.53;5.60;;;12.80;99.90;;;;;;5132613;28;20462;-70
2021/10/15 06:38:52;;;;;;;7.90;5.47;;;12.80;99.90;;;;;;5133447;28;20483;-70
2021/10/15 06:41:20;;;;;;;7.43;5.80;;;12.90;99.90;;;;;;5132069;28;20458;-73
2021/10/15 06:43:47;;;;;;;6.77;5.60;;;12.90;99.90;;;;;;5132038;28;20939;-71
2021/10/15 06:46:14;;;;;;;7.90;5.60;;;12.90;99.90;;;;;;5131915;28;20461;-71
2021/10/15 06:48:41;;;;;;;4.83;4.43;;;12.90;99.90;;;;;;5132178;28;20459;-71
2021/10/15 06:51:10;;;;;;;7.10;5.30;;;12.90;99.90;;;;;;5131992;28;20547;-71
2021/10/15 06:53:37;;;;;;;6.83;5.50;;;13.00;99.90;;;;;;5132178;28;20466;-70
2021/10/15 06:56:04;;;;;;;8.70;5.73;;;13.00;99.90;;;;;;5131789;28;20457;-70
2021/10/15 06:58:34;;;;;;;7.30;5.73;;;13.00;99.90;;;;;;5132070;28;20912;-70
2021/10/15 07:01:01;;;;;;;5.30;4.70;;;13.00;99.90;;;;;;5131617;27;20934;-70
2021/10/15 07:03:28;;;;;;;5.17;4.60;;;13.00;99.90;;;;;;5131720;28;20463;-70
2021/10/15 07:05:54;;;;;;;5.03;4.53;;;13.00;99.90;;;;;;5131810;28;20466;-71
2021/10/15 07:08:21;;;;;;;6.93;4.47;;;13.00;99.90;;;;;;5131842;28;20469;-70
2021/10/15 07:10:48;;;;;;;4.67;4.27;;;13.00;99.90;;;;;;5131883;28;20453;-70
2021/10/15 07:13:15;;;;;;;7.70;4.47;;;13.00;99.90;;;;;;5131405;28;20463;-70
2021/10/15 07:15:46;;;;;;;5.13;4.73;;;13.10;99.90;;;;;;5131102;28;20516;-70
2021/10/15 07:18:12;;;;;;;5.30;4.40;;;13.10;99.90;;;;;;5126376;28;20449;-70
2021/10/15 07:20:42;;;;;;;5.33;4.23;;;13.10;99.90;;;;;;5118496;28;20457;-71
2021/10/15 07:23:09;;;;;;;4.70;4.30;;;13.10;99.90;;;;;;5117982;28;20486;-70
2021/10/15 07:25:36;;;;;;;5.43;4.60;;;13.10;99.90;;;;;;5117414;28;20994;-70
2021/10/15 07:28:02;;;;;;;4.87;4.33;;;13.10;99.90;;;;;;5117676;28;20557;-70
2021/10/15 07:30:29;;;;;;;5.50;3.87;;;13.10;99.90;;;;;;5117415;28;20464;-70
2021/10/15 07:32:57;;;;;;;6.03;4.30;;;13.20;99.90;;;;;;5117431;28;20502;-70
2021/10/15 07:35:24;;;;;;;5.37;4.00;;;13.20;99.90;;;;;;5117781;28;20913;-70
2021/10/15 07:37:51;;;;;;;6.13;3.80;;;13.20;99.90;;;;;;5117436;28;20453;-70
2021/10/15 07:40:17;;;;;;;4.40;4.00;;;13.20;99.90;;;;;;5117585;28;20457;-70
2021/10/15 07:42:44;;;;;;;4.97;4.00;;;13.20;99.90;;;;;;5117305;28;20459;-70
2021/10/15 07:45:11;;;;;;;4.37;3.70;;;13.20;99.90;;;;;;5117211;28;21037;-70
2021/10/15 07:47:37;;;;;;;7.10;4.33;;;13.20;99.90;;;;;;5117514;28;20479;-71
2021/10/15 07:50:06;;;;;;;5.37;4.20;;;13.30;99.90;;;;;;5117225;28;20464;-71
2021/10/15 07:52:36;;;;;;;4.17;3.57;;;13.30;99.90;;;;;;5116820;28;20460;-71
2021/10/15 07:55:03;;;;;;;4.10;3.40;;;13.30;99.90;;;;;;5117058;28;20468;-71
2021/10/15 07:57:29;;;;;;;4.20;3.87;;;13.30;99.90;;;;;;5116934;28;20449;-71
2021/10/15 07:59:56;;;;;;;6.00;4.03;;;13.30;99.90;;;;;;5117565;28;20468;-71
2021/10/15 08:02:25;;;;;;;4.10;3.13;;;13.40;99.90;;;;;;5117154;28;20455;-70
2021/10/15 08:04:52;;;;;;;4.90;4.13;;;13.50;99.90;;;;;;5117101;28;20486;-71
2021/10/15 08:07:20;;;;;;;5.40;3.97;;;13.50;99.90;;;;;;5117384;28;20500;-71
2021/10/15 08:09:47;;;;;;;3.90;3.50;;;13.50;99.90;;;;;;5119084;28;20451;-70
2021/10/15 08:12:13;;;;;;;3.60;3.30;;;13.50;99.90;;;;;;5116877;28;20459;-70
2021/10/15 08:14:40;;;;;;;4.50;3.70;;;13.50;99.90;;;;;;5116707;28;20456;-70
2021/10/15 08:17:07;;;;;;;6.07;3.87;;;13.50;99.90;;;;;;5116881;28;20744;-70
2021/10/15 08:19:33;;;;;;;5.57;3.40;;;13.50;99.90;;;;;;5117108;28;20556;-70
2021/10/15 08:22:00;;;;;;;5.37;3.13;;;13.50;99.90;;;;;;5116565;28;20819;-70
2021/10/15 08:24:28;;;;;;;6.30;3.07;;;13.50;99.90;;;;;;5116525;28;20470;-70
2021/10/15 08:26:55;;;;;;;4.33;2.97;;;13.60;99.90;;;;;;5116760;28;20477;-70
2021/10/15 08:29:23;;;;;;;3.20;2.63;;;13.60;99.90;;;;;;5115829;28;20463;-70
2021/10/15 08:31:50;;;;;;;3.53;3.23;;;13.60;99.90;;;;;;5115654;28;20492;-72
2021/10/15 08:34:17;;;;;;;8.10;3.70;;;13.60;99.90;;;;;;5116436;28;20918;-70
2021/10/15 08:36:45;;;;;;;4.07;3.33;;;13.60;99.90;;;;;;5116058;28;20454;-70
2021/10/15 08:39:16;;;;;;;5.33;3.20;;;13.60;99.90;;;;;;5117456;28;20554;-70
2021/10/15 08:41:44;;;;;;;4.10;2.83;;;13.60;99.90;;;;;;5116617;28;20448;-70
2021/10/15 08:44:11;;;;;;;3.77;2.70;;;13.60;99.90;;;;;;5117298;28;20817;-70
2021/10/15 08:46:37;;;;;;;3.90;2.93;;;13.70;99.90;;;;;;5116239;28;20560;-70
2021/10/15 08:49:04;;;;;;;3.90;2.70;;;13.70;99.90;;;;;;5117340;28;20452;-70
2021/10/15 08:51:31;;;;;;;5.20;3.10;;;13.70;99.90;;;;;;5118012;28;20463;-70
2021/10/15 08:53:59;;;;;;;4.30;2.70;;;13.80;99.90;;;;;;5119823;28;20452;-71
2021/10/15 08:56:31;;;;;;;6.93;3.00;;;13.90;99.90;;;;;;5125769;28;20451;-71
2021/10/15 08:59:01;;;;;;;4.93;3.17;;;13.90;99.90;;;;;;5125212;28;20749;-70
2021/10/15 09:01:29;;;;;;;4.27;2.70;;;13.90;99.90;;;;;;5124971;28;20452;-71
2021/10/15 09:03:59;;;;;;;4.07;2.90;;;14.00;99.90;;;;;;5122038;28;20448;-71
2021/10/15 09:06:26;;;;;;;4.13;2.77;;;14.00;99.90;;;;;;5116334;28;20481;-71
2021/10/15 09:08:57;;;;;;;2.97;2.60;;;13.90;99.90;;;;;;5115921;28;20508;-71
2021/10/15 09:11:30;;;;;;;3.13;2.63;;;13.90;99.90;;;;;;5115677;28;20439;-70
2021/10/15 09:14:13;;;;;;;3.80;2.57;;;13.90;99.90;;;;;;5115828;28;20452;-70
2021/10/15 09:17:11;;;;;;;5.23;2.47;;;13.90;99.90;;;;;;5115898;28;20767;-71
2021/10/15 09:19:40;;;;;;;5.83;2.53;;;14.00;99.90;;;;;;5115263;28;20442;-71
2021/10/15 09:22:10;;;;;;;5.50;3.20;;;14.00;99.90;;;;;;5115380;28;20976;-70
2021/10/15 09:24:40;;;;;;;5.20;2.63;;;14.00;99.90;;;;;;5115560;28;20460;-69
2021/10/15 09:27:15;;;;;;;3.17;2.87;;;14.10;99.90;;;;;;5115394;28;20528;-70
2021/10/15 09:29:46;;;;;;;4.30;2.50;;;14.10;99.90;;;;;;5115370;28;20578;-70
2021/10/15 09:32:13;;;;;;;3.23;2.23;;;14.10;99.90;;;;;;5115341;28;20445;-70
2021/10/15 09:34:40;;;;;;;3.17;2.83;;;14.20;99.90;;;;;;5115301;28;20452;-70
2021/10/15 09:37:16;;;;;;;2.80;2.30;;;14.30;99.90;;;;;;5115225;28;20472;-71
2021/10/15 09:39:43;;;;;;;4.27;2.70;;;14.30;99.90;;;;;;5115441;28;20464;-71
2021/10/15 09:42:23;;;;;;;2.77;2.27;;;14.40;99.90;;;;;;5115010;28;20456;-71
2021/10/15 09:44:52;;;;;;;4.87;2.40;;;14.40;99.90;;;;;;5115251;28;20474;-69
2021/10/15 09:47:23;;;;;;;3.00;2.77;;;14.30;99.90;;;;;;5115327;28;20484;-69
2021/10/15 09:49:58;;;;;;;3.10;2.80;;;14.30;99.90;;;;;;5115236;28;20441;-72
2021/10/15 09:52:28;;;;;;;4.10;2.37;;;14.30;99.90;;;;;;5115056;28;20442;-72
2021/10/15 09:54:56;;;;;;;4.40;2.73;;;14.30;99.90;;;;;;5115332;28;20597;-71
2021/10/15 09:57:31;;;;;;;4.63;2.77;;;14.30;99.90;;;;;;5115636;28;20455;-70
2021/10/15 10:00:00;;;;;;;4.03;2.20;;;14.20;99.90;;;;;;5114644;28;20460;-71
2021/10/15 10:02:28;;;;;;;2.93;2.10;;;14.30;99.90;;;;;;5115054;28;20916;-70
2021/10/15 10:04:56;;;;;;;10.30;3.27;;;14.20;99.90;;;;;;5114901;28;20460;-71
2021/10/15 10:07:24;;;;;;;2.70;2.30;;;14.20;99.90;;;;;;5114359;28;20511;-70
2021/10/15 10:09:50;;;;;;;6.23;2.73;;;14.30;99.90;;;;;;5114982;28;20529;-70
2021/10/15 10:12:19;;;;;;;2.77;2.50;;;14.20;99.90;;;;;;5115120;28;20477;-71
2021/10/15 10:14:46;;;;;;;4.13;2.20;;;14.30;99.90;;;;;;5114736;28;20479;-71
2021/10/15 10:17:21;;;;;;;3.87;2.40;;;14.30;99.90;;;;;;5114831;28;20917;-71
2021/10/15 10:19:50;;;;;;;2.30;2.10;;;14.30;99.90;;;;;;5115034;28;20436;-70
2021/10/15 10:22:19;;;;;;;4.07;2.10;;;14.30;99.90;;;;;;5114336;28;20466;-70
2021/10/15 10:24:50;;;;;;;2.93;2.63;;;14.30;99.90;;;;;;5114918;28;20461;-71
2021/10/15 10:27:27;;;;;;;4.90;2.70;;;14.30;99.90;;;;;;5114616;28;20451;-72
2021/10/15 10:29:55;;;;;;;5.27;2.67;;;14.40;99.90;;;;;;5114545;28;20448;-70
2021/10/15 10:32:25;;;;;;;2.73;2.10;;;14.40;99.90;;;;;;5114626;28;20468;-70
2021/10/15 10:34:53;;;;;;;4.50;2.80;;;14.40;99.90;;;;;;5115043;28;20448;-69
2021/10/15 10:37:21;;;;;;;4.00;2.10;;;14.30;99.90;;;;;;5114805;28;20457;-70
2021/10/15 10:40:04;;;;;;;3.30;2.30;;;14.20;99.90;;;;;;5114560;28;20468;-71
2021/10/15 10:42:30;;;;;;;4.80;2.50;;;14.20;99.90;;;;;;5114671;28;20900;-70
2021/10/15 10:45:11;;;;;;;3.07;2.50;;;14.10;99.90;;;;;;5114444;28;20468;-70
2021/10/15 10:47:39;;;;;;;6.73;2.53;;;14.10;99.90;;;;;;5114437;28;20483;-72
2021/10/15 10:50:15;;;;;;;3.40;2.50;;;14.00;99.90;;;;;;5114995;28;20461;-72
2021/10/15 10:53:08;;;;;;;6.77;3.50;;;13.90;99.90;;;;;;5114315;28;20504;-71
2021/10/15 10:55:39;;;;;;;4.07;3.67;;;13.70;99.90;;;;;;5118216;28;20924;-71
2021/10/15 10:58:32;;;;;;;5.03;3.27;;;13.40;99.90;;;;;;5118090;28;20444;-71
2021/10/15 11:01:21;;;;;;;5.63;3.33;;;13.20;99.90;;;;;;5118501;28;20476;-71
2021/10/15 11:03:49;;;;;;;3.63;3.33;;;12.90;99.90;;;;;;5118264;28;20436;-70
2021/10/15 11:06:16;;;;;;;9.50;3.43;;;12.80;99.90;;;;;;5117949;28;20487;-69
2021/10/15 11:08:43;;;;;;;4.80;4.17;;;12.70;99.90;;;;;;5117870;28;20465;-70
2021/10/15 11:11:41;;;;;;;5.00;3.67;;;12.70;99.90;;;;;;5118341;28;20468;-70
2021/10/15 11:14:07;;;;;;;4.70;3.70;;;12.60;99.90;;;;;;5118392;28;20491;-69
2021/10/15 11:16:34;;;;;;;5.93;4.30;;;12.50;99.90;;;;;;5118308;28;20577;-69
2021/10/15 11:19:02;;;;;;;7.13;4.17;;;12.50;99.90;;;;;;5117855;28;20458;-70
2021/10/15 11:21:29;;;;;;;5.70;4.30;;;12.50;99.90;;;;;;5117537;28;20453;-69
2021/10/15 11:24:12;;;;;;;6.80;3.87;;;12.60;99.90;;;;;;5117445;28;20467;-70
2021/10/15 11:26:38;;;;;;;5.17;3.80;;;12.50;99.90;;;;;;5117788;28;20489;-69
2021/10/15 11:29:05;;;;;;;4.73;4.23;;;12.50;99.90;;;;;;5117789;28;20488;-69
2021/10/15 11:31:32;;;;;;;10.40;5.40;;;12.50;99.90;;;;;;5117324;28;20449;-69
2021/10/15 11:34:10;;;;;;;10.13;4.70;;;12.40;99.90;;;;;;5118095;28;20785;-68
2021/10/15 11:36:37;;;;;;;5.00;4.50;;;12.40;99.90;;;;;;5117408;28;20455;-69
2021/10/15 11:39:04;;;;;;;9.20;5.63;;;12.40;99.90;;;;;;5117727;28;20449;-70
2021/10/15 11:41:31;;;;;;;5.47;4.97;;;12.30;99.90;;;;;;5117488;28;20548;-69
2021/10/15 11:43:58;;;;;;;6.83;5.80;;;12.20;99.90;;;;;;5117781;28;20835;-70
2021/10/15 11:46:32;;;;;;;11.30;7.77;;;12.10;99.90;;;;;;5117352;28;20457;-70
2021/10/15 11:48:59;;;;;;;10.70;8.23;;;12.00;99.90;;;;;;5118395;28;20514;-70
2021/10/15 11:51:28;;;;;;;10.33;8.47;;;12.00;99.90;;;;;;5117481;28;20467;-70
2021/10/15 11:53:56;;;;;;;14.90;10.70;;;12.00;99.90;;;;;;5117780;28;20839;-73
2021/10/15 11:56:25;;;;;;;14.53;11.77;;;12.00;99.90;;;;;;5117836;28;20478;-71
2021/10/15 11:58:52;;;;;;;13.90;12.60;;;11.90;99.90;;;;;;5117890;28;20464;-70
2021/10/15 12:01:21;;;;;;;13.67;11.57;;;11.90;99.90;;;;;;5119053;28;20476;-71
2021/10/15 12:03:54;;;;;;;11.00;9.27;;;11.90;99.90;;;;;;5118907;28;20911;-71
2021/10/15 12:06:29;;;;;;;8.77;6.70;;;11.80;99.90;;;;;;5118109;28;20484;-70
2021/10/15 12:08:58;;;;;;;5.57;3.80;;;11.70;99.90;;;;;;5117496;28;20931;-71
2021/10/15 12:11:42;;;;;;;5.20;4.10;;;11.50;99.90;;;;;;5117384;28;20460;-71
2021/10/15 12:14:10;;;;;;;3.63;3.30;;;11.40;99.90;;;;;;5116734;28;20442;-71
2021/10/15 12:16:48;;;;;;;3.97;2.20;;;11.40;99.90;;;;;;5116533;28;20922;-71
2021/10/15 12:19:21;;;;;;;2.03;1.73;;;11.30;99.90;;;;;;5116726;28;20439;-71
2021/10/15 12:21:51;;;;;;;2.43;2.00;;;11.30;99.90;;;;;;5117039;28;20776;-71
2021/10/15 12:24:26;;;;;;;2.93;2.17;;;11.20;99.90;;;;;;5116856;28;20461;-71
2021/10/15 12:27:05;;;;;;;2.80;2.00;;;11.20;99.90;;;;;;5116233;28;20461;-70
2021/10/15 12:29:35;;;;;;;3.27;2.10;;;11.10;99.90;;;;;;5116598;28;20516;-71
2021/10/15 12:32:14;;;;;;;1.70;1.43;;;11.10;99.90;;;;;;5116390;28;20467;-70
2021/10/15 12:35:06;;;;;;;2.00;1.70;;;11.10;99.90;;;;;;5116700;28;20826;-71
2021/10/15 12:37:40;;;;;;;2.70;1.67;;;11.10;99.90;;;;;;5116901;27;20504;-71
2021/10/15 12:40:24;;;;;;;2.13;1.93;;;11.10;99.90;;;;;;5116703;28;20445;-70
2021/10/15 12:43:06;;;;;;;2.40;2.20;;;11.10;99.90;;;;;;5116759;28;20480;-71
2021/10/15 12:45:35;;;;;;;2.00;1.80;;;11.10;99.90;;;;;;5117097;28;20441;-72
2021/10/15 12:48:04;;;;;;;2.33;1.80;;;11.00;99.90;;;;;;5116888;28;20846;-71
2021/10/15 12:50:33;;;;;;;2.13;1.40;;;11.00;99.90;;;;;;5116869;28;20521;-72
2021/10/15 12:53:13;;;;;;;2.60;1.40;;;10.90;99.90;;;;;;5116446;28;20463;-72
2021/10/15 12:55:53;;;;;;;2.73;1.50;;;10.80;99.90;;;;;;5116291;28;20441;-71
2021/10/15 12:58:20;;;;;;;2.97;1.47;;;10.70;99.90;;;;;;5117479;28;20432;-71
2021/10/15 13:00:49;;;;;;;1.97;1.20;;;10.70;99.90;;;;;;5116353;28;20775;-71
2021/10/15 13:03:16;;;;;;;2.80;1.67;;;10.60;99.90;;;;;;5115776;28;20911;-71
2021/10/15 13:05:43;;;;;;;2.53;1.53;;;10.60;99.90;;;;;;5116158;28;20452;-70